Terminal Aerodrome Forecast
Issued by NWS Sterling, VA

Home | Current Version | Previous Version | Text Only | Print | Product List | Glossary On
Versions: 1 2 3 4 5 6 7 8 9 10 11 12 13 14 15 16 17 18 19 20 21 22 23
000
FTUS41 KLWX 060541
TAFMRB
TAF
KMRB 060541Z 0606/0706 VRB03KT 3SM SHRA OVC025
     FM060800 00000KT P6SM OVC008
     FM061000 VRB03KT 6SM -SHRA OVC008
     FM061300 10004KT P6SM OVC008
     FM061600 12007KT P6SM -SHRA VCTS OVC015CB
     FM070100 14004KT 5SM BR BKN070=

USA.gov is the U.S. government's official web portal to all federal, state and local government web resources and services.